Ikke nødvendig med spesiell oppmerksomhet.   -   Ingen advarsler for øyeblikket

METAR Rapporter

 

ENZV - Stavanger
Oppdatert: 20/02/2018 18:20
hovedsaklig skyet
hovedsaklig skyet
 Vind fra S
Vind: S 6 km/h
Temperatur: 2°C
Duggpunkt: -3°C
Fuktighet: 70%
Barometer: 1026 hPa
Skyet: hovedsaklig skyet
Sikt: 10 km
2018/02/20 17:20 ENZV 201720Z 19003KT 9999 FEW020 BKN030 02/M03 Q1026 NOSIG
ENBR - Bergen
Oppdatert: 20/02/2018 18:20
hovedsaklig skyet
hovedsaklig skyet
 Vind fra SØ
Vind: SØ 7 km/h
Temperatur: 2°C
Vindkjøling: 0°C
Duggpunkt: -5°C
Fuktighet: 60%
Barometer: 1025 hPa
Skyet: hovedsaklig skyet
Sikt: 10 km
2018/02/20 17:20 ENBR 201720Z 14004KT 9999 BKN035 02/M05 Q1025 NOSIG RMK WIND 1200FT 16010KT
 
ENHD - Haugesund
Oppdatert: 20/02/2018 18:20
hovedsaklig skyet
hovedsaklig skyet
 Vind fra SSØ
Vind: SSØ 7 km/h
Temperatur: 2°C
Vindkjøling: 0°C
Duggpunkt: -3°C
Fuktighet: 70%
Barometer: 1026 hPa
Skyet: hovedsaklig skyet
Sikt: 10 km
2018/02/20 17:20 ENHD 201720Z 15004KT 9999 BKN031 02/M03 Q1026
ENCN - Kristiansand
Oppdatert: 20/02/2018 18:20
Light snow, mostly cloudy
Light snow, mostly cloudy
 Vind fra NNØ
Vind: NNØ 13 km/h
Temperatur: -1°C
Vindkjøling: -6°C
Duggpunkt: -3°C
Fuktighet: 86%
Barometer: 1027 hPa
Oversikt: Lett snø
Skyet: hovedsaklig skyet
Sikt: 10 km
2018/02/20 17:20 ENCN 201720Z 03007KT 9999 -SN SCT011 BKN020 M01/M03 Q1027
 
ENBO - Bodø
Oppdatert: 20/02/2018 18:20
hovedsaklig skyet
hovedsaklig skyet
 Vind fra Ø
Vind: Ø 39 km/h
Temperatur: -4°C
Vindkjøling: -12°C
Duggpunkt: -10°C
Fuktighet: 63%
Barometer: 1025 hPa
Skyet: hovedsaklig skyet
Sikt: 10 km
2018/02/20 17:20 ENBO 201720Z 08021KT 9999 FEW020 BKN050 M04/M10 Q1025 NOSIG
ENKR - Kirkenes
Oppdatert: 20/02/2018 18:20
Light snow, mostly cloudy
Light snow, mostly cloudy
 Vind fra VNV
Vind: VNV 13 km/h
Temperatur: -8°C
Vindkjøling: -13°C
Duggpunkt: -9°C
Fuktighet: 93%
Barometer: 1024 hPa
Oversikt: Lett snø
Skyet: hovedsaklig skyet
Sikt: 10 km
2018/02/20 17:20 ENKR 201720Z 29007KT 9999 -SN FEW007 SCT016 BKN021 M08/M09 Q1024 RMK WIND 731FT 28015KT
 
ENVA - Trondheim
Oppdatert: 20/02/2018 18:20
Light snow, mostly cloudy
Light snow, mostly cloudy
 Vind fra calm
Vind: Stille
Temperatur: -4°C
Duggpunkt: -7°C
Fuktighet: 80%
Barometer: 1025 hPa
Oversikt: Lett snø
Skyet: hovedsaklig skyet
Sikt: 5 km
2018/02/20 17:20 ENVA 201720Z 00000KT 5000 -SN SCT016 BKN021 M04/M07 Q1025 TEMPO 1500 SN VV003 RMK WIND 670FT 09004KT
ENGM - Oslo
Oppdatert: 20/02/2018 18:20
overskyet
overskyet
 Vind fra S
Vind: S 7 km/h
Temperatur: -6°C
Vindkjøling: -10°C
Duggpunkt: -8°C
Fuktighet: 86%
Barometer: 1026 hPa
Skyet: overskyet
Sikt: 10 km
2018/02/20 17:20 ENGM 201720Z 17004KT 9999 FEW014 OVC051 M06/M08 Q1026 NOSIG